Latest Weather Observations for Trepell

IDQ60801

Issued at 11:02 pm EST Monday 20 February 2017 (issued every 30 minutes, with the page automatically refreshed every 10 minutes)

About weather observations | Map of weather stations | Latest weather observations for QLD | Other Formats
Station Details ID: 037036 Name: TREPELL AIRPORT Lat: -21.84 Lon: 140.89 Height: 266.2 m
Data from the previous 72 hours. | See also: Recent months at Trepell
Date/Time
EST
Temp
°C
App
Temp
°C
Dew
Point
°C
Rel
Hum
%
Delta-T
°C
Wind Press
QNH
hPa
Press
MSL
hPa
Rain since
9am
mm
Dir  Spd
km/h
Gust
km/h
Spd
kts
Gust
kts
20/10:30pm 26.4 22.4 0.2 18 12.4 S 11 13 6 7 1012.6 1010.5 0.0
20/10:00pm 27.2 22.8 0.1 17 12.9 S 13 17 7 9 1012.3 1010.2 0.0
20/09:30pm 27.8 23.3 -0.3 16 13.3 S 13 19 7 10 1011.7 1009.7 0.0
20/09:00pm 28.6 23.7 -0.5 15 13.8 S 15 20 8 11 1011.4 1009.4 0.0
20/08:30pm 29.1 24.3 -0.1 15 14.0 S 15 20 8 11 1011.2 1009.2 0.0
20/08:00pm 29.7 24.4 -0.6 14 14.5 SSW 17 20 9 11 1010.9 1008.9 0.0
20/07:30pm 29.9 26.2 2.2 17 13.9 SSE 11 11 6 6 1010.6 1008.6 0.0
20/07:00pm 31.1 27.2 1.4 15 14.8 SSE 11 13 6 7 1010.4 1008.4 0.0
20/06:30pm 32.4 28.4 0.5 13 15.8 S 11 15 6 8 1009.9 1007.9 0.0
20/06:00pm 33.0 28.7 0.9 13 16.1 S 13 19 7 10 1009.6 1007.5 0.0
20/05:30pm 33.9 29.3 1.6 13 16.4 SSE 15 22 8 12 1009.5 1007.4 0.0
20/05:00pm 34.0 29.1 1.7 13 16.5 SSE 17 24 9 13 1009.7 1007.7 0.0
20/04:30pm 34.1 29.0 0.7 12 16.8 SE 17 22 9 12 1009.7 1007.7 0.0
20/04:00pm 33.9 29.7 1.6 13 16.5 SSE 13 20 7 11 1009.6 1007.5 0.0
20/03:30pm 33.9 29.7 1.6 13 16.4 SSE 13 22 7 12 1009.7 1007.7 0.0
20/03:00pm 34.6 29.9 1.1 12 17.0 SSE 15 22 8 12 1009.9 1007.9 0.0
20/02:30pm 35.3 30.5 2.7 13 17.0 SSE 17 35 9 19 1010.1 1008.1 0.0
20/02:00pm 35.1 29.5 1.5 12 17.2 S 20 30 11 16 1010.4 1008.4 0.0
20/01:30pm 33.4 28.2 0.1 12 16.5 S 17 24 9 13 1011.1 1009.1 0.0
20/01:00pm 33.3 28.1 0.1 12 16.4 SSE 17 28 9 15 1011.6 1009.6 0.0
20/12:30pm 31.8 27.0 0.0 13 15.6 ESE 15 26 8 14 1012.0 1009.9 0.0
20/12:00pm 31.0 26.0 1.4 15 14.8 SE 17 26 9 14 1012.3 1010.2 0.0
20/11:30am 31.1 24.6 0.5 14 15.0 ESE 24 35 13 19 1012.6 1010.5 0.0
20/11:00am 30.6 24.4 1.9 16 14.4 ESE 24 32 13 17 1013.0 1010.9 0.0
20/10:30am 29.1 23.0 0.7 16 13.8 SE 22 33 12 18 1013.3 1011.3 0.0
20/10:00am 28.4 21.6 1.0 17 13.3 SE 26 37 14 20 1013.6 1011.6 0.0
20/09:30am 27.6 20.2 1.9 19 12.6 SE 30 37 16 20 1013.6 1011.6 0.0
20/09:00am 26.6 20.0 1.8 20 12.1 SSE 26 33 14 18 1013.4 1011.4 0.0
20/08:30am 25.0 20.2 2.4 23 11.0 S 17 24 9 13 1013.2 1011.2 0.0
20/08:00am 22.4 18.9 3.5 29 9.2 SSW 11 15 6 8 1013.2 1011.2 0.0
20/07:30am 20.8 17.3 3.5 32 8.4 SSW 11 15 6 8 1013.0 1010.9 0.0
20/07:00am 19.9 16.3 3.2 33 8.0 SSW 11 13 6 7 1012.7 1010.6 0.0
20/06:30am 19.6 16.0 2.9 33 7.9 SW 11 13 6 7 1012.3 1010.2 0.0
20/06:00am 19.6 16.4 2.9 33 7.9 SSW 9 11 5 6 1011.8 1009.8 0.0
20/05:30am 19.9 16.3 2.7 32 8.1 SSW 11 13 6 7 1011.5 1009.5 0.0
20/05:00am 20.2 16.5 2.5 31 8.4 SSW 11 15 6 8 1011.0 1009.0 0.0
20/04:30am 20.7 16.6 2.5 30 8.6 SSW 13 17 7 9 1011.0 1009.0 0.0
20/04:00am 20.8 17.2 3.1 31 8.5 SSW 11 15 6 8 1010.9 1008.9 0.0
20/03:30am 21.5 17.5 2.7 29 9.0 SSW 13 17 7 9 1010.8 1008.8 0.0
20/03:00am 22.1 17.7 2.8 28 9.3 SSW 15 19 8 10 1010.8 1008.8 0.0
20/02:30am 22.1 18.2 3.3 29 9.1 SSW 13 17 7 9 1011.0 1009.0 0.0
20/02:00am 22.7 18.8 3.3 28 9.5 SSW 13 17 7 9 1011.2 1009.2 0.0
20/01:30am 23.2 19.4 3.7 28 9.6 SSW 13 17 7 9 1011.1 1009.1 0.0
20/01:00am 23.4 19.7 4.4 29 9.5 SSW 13 17 7 9 1011.2 1009.2 0.0
20/12:30am 23.7 20.0 4.6 29 9.6 SSW 13 15 7 8 1011.3 1009.3 0.0
20/12:00am 24.4 21.1 4.7 28 10.0 SSW 11 15 6 8 1011.6 1009.6 0.0
 
Date/Time
EST
Temp
°C
App
Temp
°C
Dew
Point
°C
Rel
Hum
%
Delta-T
°C
Wind Press
QNH
hPa
Press
MSL
hPa
Rain since
9am
mm
Dir  Spd
km/h
Gust
km/h
Spd
kts
Gust
kts
19/11:30pm 25.7 21.7 4.8 26 10.7 SSW 15 19 8 10 1011.7 1009.7 0.0
19/11:00pm 25.7 22.2 5.3 27 10.5 SSW 13 17 7 9 1011.6 1009.6 0.0
19/10:30pm 25.8 23.1 5.4 27 10.6 SW 9 11 5 6 1011.4 1009.4 0.0
19/10:00pm 26.7 23.9 5.1 25 11.2 SW 9 11 5 6 1011.2 1009.2 0.0
19/09:30pm 27.2 24.0 4.9 24 11.5 SW 11 13 6 7 1010.8 1008.8 0.0
19/09:00pm 27.0 23.8 5.3 25 11.3 SW 11 13 6 7 1010.6 1008.6 0.0
19/08:30pm 27.8 24.5 4.8 23 11.9 SW 11 13 6 7 1010.5 1008.5 0.0
19/08:00pm 28.3 25.4 4.6 22 12.3 SW 9 11 5 6 1010.2 1008.2 0.0
19/07:30pm 29.6 26.3 4.3 20 13.1 SW 11 15 6 8 1010.1 1008.1 0.0
19/07:00pm 30.4 26.3 4.2 19 13.7 SW 15 19 8 10 1009.8 1007.8 0.0
19/06:30pm 31.2 26.3 4.1 18 14.2 SW 19 24 10 13 1009.6 1007.5 0.0
19/06:00pm 31.5 26.4 4.3 18 14.3 SSW 20 26 11 14 1009.4 1007.3 0.0
19/05:30pm 32.5 27.4 4.3 17 14.9 SSW 20 28 11 15 1009.2 1007.1 0.0
19/05:00pm 32.8 27.4 4.6 17 15.0 SSW 22 32 12 17 1008.9 1006.8 0.0
19/04:30pm 32.7 28.3 4.5 17 15.0 SSW 17 26 9 14 1009.0 1006.9 0.0
19/04:00pm 33.0 29.3 4.7 17 15.1 S 13 20 7 11 1009.0 1006.9 0.0
19/03:30pm 33.0 28.0 4.7 17 15.1 SSW 20 28 11 15 1009.0 1006.9 0.0
19/03:00pm 33.4 28.7 5.0 17 15.3 SSW 19 28 10 15 1009.0 1006.9 0.0
19/02:30pm 33.8 29.2 5.4 17 15.4 S 19 30 10 16 1009.5 1007.4 0.0
19/02:00pm 33.4 29.0 5.0 17 15.3 SSE 17 26 9 14 1009.8 1007.8 0.0
19/01:30pm 31.8 27.7 4.6 18 14.4 S 15 26 8 14 1010.3 1008.3 0.0
19/01:00pm 31.6 26.6 4.4 18 14.3 S 20 32 11 17 1011.0 1009.0 0.0
19/12:30pm 31.2 27.0 5.6 20 13.7 S 17 26 9 14 1011.5 1009.5 0.0
19/12:00pm 30.4 26.2 5.6 21 13.2 S 17 26 9 14 1012.2 1010.1 0.0
19/11:30am 29.7 25.6 6.4 23 12.5 S 17 24 9 13 1012.5 1010.4 0.0
19/11:00am 27.5 23.3 5.7 25 11.5 S 17 22 9 12 1012.8 1010.7 0.0
19/10:30am 26.7 22.4 5.1 25 11.2 S 17 24 9 13 1013.1 1011.0 0.0
19/10:00am 26.1 21.5 5.7 27 10.6 SSW 19 28 10 15 1013.0 1010.9 0.0
19/09:30am 26.0 21.3 6.1 28 10.4 SSW 20 26 11 14 1012.8 1010.7 0.0
19/09:00am 25.4 20.3 6.1 29 10.1 SSW 22 30 12 16 1012.9 1010.8 -
19/08:30am 25.0 19.9 6.2 30 9.8 SSW 22 32 12 17 1012.7 1010.6 -
19/08:00am 24.9 20.3 8.0 34 9.1 SW 22 28 12 15 1012.5 1010.4 -
19/07:30am 24.7 21.3 9.0 37 8.6 SW 17 22 9 12 1012.3 1010.2 -
19/07:00am 24.4 21.0 9.2 38 8.3 SW 17 20 9 11 1011.7 1009.7 -
19/06:30am 24.2 22.7 10.5 42 7.7 SW 9 13 5 7 1011.4 1009.4 -
19/06:00am 24.7 23.1 10.2 40 8.1 SW 9 11 5 6 1011.1 1009.1 -
19/05:30am 25.2 22.8 11.4 42 7.9 SW 15 17 8 9 1010.8 1008.8 -
19/05:00am 25.0 27.2 18.4 66 4.2 WNW 4 9 2 5 1010.5 1008.5 -
19/04:30am 25.3 27.3 18.7 67 4.2 N 6 9 3 5 1010.4 1008.4 -
19/04:00am 26.2 27.5 17.0 57 5.8 W 6 11 3 6 1010.3 1008.3 -
19/03:30am 26.8 27.9 19.7 65 4.7 NW 13 19 7 10 1010.3 1008.3 -
19/03:00am 27.5 28.4 19.3 61 5.4 NW 13 19 7 10 1010.4 1008.4 0.0
19/02:30am 27.0 29.1 19.4 63 5.0 NNW 7 11 4 6 1010.4 1008.4 -
19/02:00am 26.3 27.4 19.7 67 4.3 NNE 13 13 7 7 1010.4 1008.4 -
19/01:30am 26.6 30.2 19.7 66 4.5 CALM 0 0 0 0 1010.6 1008.6 -
19/01:00am 27.0 28.8 19.6 64 4.9 SW 9 11 5 6 1010.8 1008.8 -
19/12:30am 26.8 29.7 19.9 66 4.5 ENE 4 15 2 8 1010.9 1008.9 -
19/12:00am 26.9 29.9 19.3 63 5.0 NE 2 6 1 3 1010.7 1008.7 -
 
Date/Time
EST
Temp
°C
App
Temp
°C
Dew
Point
°C
Rel
Hum
%
Delta-T
°C
Wind Press
QNH
hPa
Press
MSL
hPa
Rain since
9am
mm
Dir  Spd
km/h
Gust
km/h
Spd
kts
Gust
kts
18/11:30pm 27.5 28.6 18.8 59 5.6 NE 11 15 6 8 1010.7 1008.7 -
18/11:00pm 27.4 28.7 19.2 61 5.4 NE 11 15 6 8 1010.9 1008.9 -
18/10:30pm 28.6 30.3 17.2 50 7.2 N 4 9 2 5 1011.2 1009.2 -
18/10:00pm 28.8 29.5 18.0 52 7.0 NNW 11 15 6 8 1010.7 1008.7 -
18/09:30pm 28.3 29.5 19.0 57 6.1 N 11 15 6 8 1010.9 1008.9 -
18/09:00pm 28.4 29.2 19.1 57 6.1 NNW 13 19 7 10 1010.7 1008.7 0.0
18/08:30pm 28.5 29.8 19.2 57 6.1 NW 11 13 6 7 1010.5 1008.5 -
18/08:00pm 28.9 28.5 18.1 52 7.0 NW 17 20 9 11 1009.9 1007.9 -
18/07:30pm 28.6 28.2 18.1 53 6.8 WNW 17 20 9 11 1010.0 1008.0 -
18/07:00pm 29.2 28.4 18.0 51 7.2 W 19 24 10 13 1009.8 1007.8 -
18/06:30pm 29.3 29.6 18.7 52 6.9 W 15 19 8 10 1009.6 1007.5 -
18/06:00pm 28.2 28.2 19.7 60 5.6 WSW 19 28 10 15 1009.6 1007.5 -
18/05:30pm 29.8 28.4 17.9 48 7.7 SW 22 30 12 16 1009.5 1007.4 -
18/05:00pm 29.7 26.2 17.8 48 7.7 SW 33 48 18 26 1009.1 1007.0 -
18/04:45pm 30.6 27.7 17.0 44 8.7 WSW 28 54 15 29 1008.9 1006.8 -
18/04:41pm 31.7 30.1 16.0 38 9.9 WSW 19 43 10 23 1009.0 1006.9 -
18/04:30pm 34.3 35.4 17.1 36 11.1 WSW 7 17 4 9 1008.5 1006.4 -
18/04:00pm 34.9 35.5 16.7 34 11.7 WSW 9 20 5 11 1008.5 1006.4 -
18/03:30pm 34.4 34.8 16.3 34 11.6 NW 9 19 5 10 1008.9 1006.8 -
18/03:00pm 34.2 33.8 16.1 34 11.5 WNW 13 20 7 11 1009.4 1007.3 -
18/02:30pm 33.1 32.6 16.9 38 10.4 NNW 15 20 8 11 1009.9 1007.9 -
18/02:00pm 32.9 31.7 17.1 39 10.2 NW 19 24 10 13 1010.5 1008.5 -
18/01:30pm 33.3 33.1 17.5 39 10.2 WNW 15 24 8 13 1010.9 1008.9 -
18/01:00pm 33.2 33.2 18.2 41 9.8 WNW 15 24 8 13 1011.6 1009.6 -
18/12:30pm 32.8 33.6 18.2 42 9.5 NW 11 17 6 9 1012.0 1009.9 -
18/12:00pm 31.6 32.0 18.2 44 8.7 WNW 13 19 7 10 1012.3 1010.2 -
18/11:30am 31.2 31.2 18.2 46 8.5 NW 15 22 8 12 1012.8 1010.7 0.0
18/11:00am 30.6 30.3 18.3 47 8.0 WNW 17 20 9 11 1012.8 1010.7 0.0
18/10:30am 30.3 30.1 18.4 49 7.7 W 17 20 9 11 1013.0 1010.9 0.0
18/10:00am 30.2 30.0 18.6 49 7.6 W 17 22 9 12 1013.0 1010.9 0.0
18/09:30am 29.9 30.1 19.3 53 7.0 WSW 17 20 9 11 1013.1 1011.0 0.0
18/09:00am 29.3 29.3 19.0 53 6.7 WSW 17 20 9 11 1012.9 1010.8 0.0
18/08:30am 29.1 30.2 19.7 57 6.2 SW 13 17 7 9 1012.6 1010.5 0.0
18/08:00am 28.6 31.1 20.3 60 5.5 WNW 7 9 4 5 1012.3 1010.2 0.0
18/07:30am 27.7 29.6 20.5 65 4.8 NNE 11 13 6 7 1011.8 1009.8 0.0
18/07:00am 27.1 29.2 20.2 66 4.6 NNE 9 11 5 6 1011.3 1009.3 0.0
18/06:30am 26.3 29.1 19.7 67 4.3 S 4 9 2 5 1011.1 1009.1 0.0
18/06:00am 27.3 29.5 19.6 62 5.1 N 7 9 4 5 1010.5 1008.5 0.0
18/05:30am 27.7 29.0 19.2 60 5.5 N 11 17 6 9 1010.1 1008.1 0.0
18/05:00am 27.9 29.6 19.4 60 5.6 N 9 13 5 7 1010.0 1008.0 0.0
18/04:30am 27.9 29.8 19.7 61 5.4 N 9 13 5 7 1009.7 1007.7 0.0
18/04:00am 28.2 30.1 19.7 60 5.6 N 9 11 5 6 1009.4 1007.3 0.0
18/03:30am 27.8 28.5 19.6 61 5.4 N 15 19 8 10 1009.1 1007.0 0.0
18/03:00am 27.9 29.2 19.4 60 5.6 N 11 13 6 7 1009.3 1007.2 0.0
18/02:30am 28.7 30.3 19.1 56 6.3 N 9 13 5 7 1009.6 1007.5 0.0
18/02:00am 29.3 30.5 19.0 53 6.7 NNW 11 17 6 9 1009.8 1007.8 0.0
18/01:30am 29.7 30.8 18.8 52 7.1 NNW 11 15 6 8 1010.0 1008.0 0.0
18/01:00am 30.0 30.5 18.4 49 7.5 N 13 17 7 9 1010.2 1008.2 0.0
18/12:30am 30.1 30.4 18.8 50 7.4 N 15 22 8 12 1010.4 1008.4 0.0
18/12:00am 29.5 30.6 18.9 53 6.9 N 11 17 6 9 1010.6 1008.6 0.0
 
Date/Time
EST
Temp
°C
App
Temp
°C
Dew
Point
°C
Rel
Hum
%
Delta-T
°C
Wind Press
QNH
hPa
Press
MSL
hPa
Rain since
9am
mm
Dir  Spd
km/h
Gust
km/h
Spd
kts
Gust
kts
17/11:30pm 29.5 30.4 19.2 54 6.8 NNE 13 17 7 9 1011.0 1009.0 0.0

Other Formats:

Comma delimited format used in spreadsheet applications
http://www.bom.gov.au/fwo/IDQ60801/IDQ60801.94338.axf

JavaScript Object Notation format (JSON) in row-major order
http://www.bom.gov.au/fwo/IDQ60801/IDQ60801.94338.json